createdAt,value
2023-06-06T00:00:51.646Z,3.73
2023-06-06T00:03:22.389Z,3.40
2023-06-06T00:05:52.422Z,4.60
2023-06-06T00:08:24.847Z,5.00
2023-06-06T00:10:53.082Z,5.50
2023-06-06T00:13:21.661Z,6.10
2023-06-06T00:15:49.880Z,5.37
2023-06-06T00:18:19.823Z,5.30
2023-06-06T00:20:49.517Z,5.73
2023-06-06T00:23:19.554Z,6.77
2023-06-06T00:25:48.054Z,5.47
2023-06-06T00:28:16.524Z,5.87
2023-06-06T00:30:44.890Z,5.77
2023-06-06T00:33:13.377Z,5.60
2023-06-06T00:35:41.639Z,6.50
2023-06-06T00:38:09.864Z,6.40
2023-06-06T00:40:39.461Z,4.60
2023-06-06T00:43:07.689Z,5.77
2023-06-06T00:45:35.913Z,5.90
2023-06-06T00:48:04.351Z,6.00
2023-06-06T00:50:33.731Z,5.93
2023-06-06T00:53:02.100Z,5.90
2023-06-06T00:55:31.505Z,6.80
2023-06-06T00:58:02.010Z,6.33
2023-06-06T01:00:33.920Z,5.67
2023-06-06T01:03:04.733Z,6.27
2023-06-06T01:05:33.122Z,5.20
2023-06-06T01:08:01.322Z,6.40
2023-06-06T01:10:31.497Z,7.10
2023-06-06T01:13:07.066Z,5.43
2023-06-06T01:15:37.910Z,6.13
2023-06-06T01:18:06.995Z,5.63
2023-06-06T01:20:36.269Z,5.90
2023-06-06T01:23:06.251Z,6.63
2023-06-06T01:25:36.619Z,5.80
2023-06-06T01:28:05.382Z,6.37
2023-06-06T01:30:36.052Z,5.87
2023-06-06T01:33:12.454Z,5.67
2023-06-06T01:35:53.057Z,5.90
2023-06-06T01:38:25.705Z,6.87
2023-06-06T01:40:55.337Z,6.60
2023-06-06T01:43:26.094Z,5.50
2023-06-06T01:45:54.852Z,6.73
2023-06-06T01:48:23.453Z,6.13
2023-06-06T01:50:52.623Z,6.00
2023-06-06T01:53:21.883Z,5.80
2023-06-06T01:55:52.301Z,6.40
2023-06-06T01:58:21.244Z,6.30
2023-06-06T02:00:49.558Z,5.87
2023-06-06T02:03:18.059Z,6.17
2023-06-06T02:05:46.575Z,4.70
2023-06-06T02:08:14.900Z,5.70
2023-06-06T02:10:43.182Z,5.60
2023-06-06T02:13:12.764Z,6.60
2023-06-06T02:15:41.003Z,6.10
2023-06-06T02:18:09.346Z,6.57
2023-06-06T02:20:37.583Z,6.70
2023-06-06T02:23:05.765Z,5.70
2023-06-06T02:25:38.445Z,6.10
2023-06-06T02:28:09.058Z,6.47
2023-06-06T02:30:38.932Z,6.40
2023-06-06T02:33:09.005Z,6.00
2023-06-06T02:35:37.446Z,5.90
2023-06-06T02:38:06.238Z,6.60
2023-06-06T02:40:34.466Z,5.73
2023-06-06T02:43:02.679Z,6.50
2023-06-06T02:45:31.180Z,5.80
2023-06-06T02:48:01.268Z,6.07
2023-06-06T02:50:31.130Z,7.13
2023-06-06T02:53:01.577Z,7.10
2023-06-06T02:55:29.775Z,6.43
2023-06-06T02:57:57.979Z,5.80
2023-06-06T03:00:26.519Z,6.90
2023-06-06T03:02:54.788Z,6.60
2023-06-06T03:05:30.063Z,6.50
2023-06-06T03:07:58.570Z,6.70
2023-06-06T03:10:26.786Z,6.33
2023-06-06T03:12:55.009Z,7.00
2023-06-06T03:15:23.222Z,6.37
2023-06-06T03:17:51.475Z,6.57
2023-06-06T03:20:21.306Z,6.80
2023-06-06T03:22:50.918Z,6.97
2023-06-06T03:25:22.613Z,7.13
2023-06-06T03:27:50.987Z,6.80
2023-06-06T03:30:19.236Z,6.80
2023-06-06T03:32:47.471Z,6.60
2023-06-06T03:35:18.305Z,7.63
2023-06-06T03:37:46.718Z,8.17
2023-06-06T03:40:16.251Z,7.00
2023-06-06T03:42:44.688Z,7.60
2023-06-06T03:45:13.039Z,8.03
2023-06-06T03:47:41.578Z,7.90
2023-06-06T03:50:10.100Z,8.00
2023-06-06T03:52:38.411Z,7.73
2023-06-06T03:55:07.025Z,8.57
2023-06-06T03:57:36.776Z,7.90
2023-06-06T04:00:08.767Z,7.70
2023-06-06T04:02:37.435Z,7.63
2023-06-06T04:05:05.849Z,7.80
2023-06-06T04:07:34.250Z,6.90
2023-06-06T04:10:02.967Z,6.60
2023-06-06T04:12:31.226Z,7.43
2023-06-06T04:15:00.855Z,8.20
2023-06-06T04:17:29.092Z,7.20
2023-06-06T04:19:58.758Z,6.83
2023-06-06T04:22:28.216Z,7.37
2023-06-06T04:24:56.414Z,7.23
2023-06-06T04:27:25.378Z,5.70
2023-06-06T04:29:53.992Z,6.40
2023-06-06T04:32:23.542Z,9.07
2023-06-06T04:34:52.861Z,7.33
2023-06-06T04:37:22.108Z,5.87
2023-06-06T04:39:53.505Z,5.50
2023-06-06T04:42:22.370Z,6.20
2023-06-06T04:44:50.950Z,4.33
2023-06-06T04:47:22.378Z,8.20
2023-06-06T04:49:52.598Z,9.90
2023-06-06T04:52:20.856Z,7.20
2023-06-06T04:54:49.297Z,6.10
2023-06-06T04:57:18.185Z,5.10
2023-06-06T04:59:51.157Z,5.27
2023-06-06T05:02:21.833Z,5.53
2023-06-06T05:04:53.587Z,9.23
2023-06-06T05:07:25.438Z,9.60
2023-06-06T05:09:53.936Z,5.33
2023-06-06T05:12:22.288Z,5.97
2023-06-06T05:14:51.008Z,5.83
2023-06-06T05:17:21.680Z,6.00
2023-06-06T05:19:51.757Z,4.87
2023-06-06T05:22:19.994Z,5.50
2023-06-06T05:24:48.219Z,7.07
2023-06-06T05:27:16.490Z,6.07
2023-06-06T05:29:44.874Z,10.20
2023-06-06T05:32:14.599Z,6.70
2023-06-06T05:34:42.983Z,7.87
2023-06-06T05:37:12.624Z,6.87
2023-06-06T05:39:40.979Z,6.90
2023-06-06T05:42:09.330Z,6.43
2023-06-06T05:44:37.525Z,6.73
2023-06-06T05:47:06.352Z,7.50
2023-06-06T05:49:34.565Z,12.37
2023-06-06T05:52:03.356Z,8.00
2023-06-06T05:54:48.843Z,13.40
2023-06-06T05:57:22.213Z,8.40
2023-06-06T05:59:50.685Z,9.20
2023-06-06T06:02:19.058Z,9.73
2023-06-06T06:04:54.077Z,10.33
2023-06-06T06:07:23.349Z,13.67
2023-06-06T06:09:53.210Z,14.10
2023-06-06T06:12:21.573Z,14.60
2023-06-06T06:14:49.831Z,9.60
2023-06-06T06:17:23.587Z,7.20
2023-06-06T06:19:51.916Z,8.43
2023-06-06T06:22:20.382Z,7.03
2023-06-06T06:24:48.580Z,6.90
2023-06-06T06:27:20.325Z,7.93
2023-06-06T06:29:49.763Z,8.70
2023-06-06T06:32:18.505Z,8.73
2023-06-06T06:34:46.744Z,14.53
2023-06-06T06:37:14.949Z,10.83
2023-06-06T06:39:43.256Z,12.80
2023-06-06T06:42:11.493Z,8.90
2023-06-06T06:44:42.392Z,8.90
2023-06-06T06:47:10.760Z,7.67
2023-06-06T06:49:41.793Z,12.53
2023-06-06T06:52:12.240Z,12.50
2023-06-06T06:54:47.640Z,9.33
2023-06-06T06:57:17.965Z,9.50
2023-06-06T06:59:47.602Z,8.30
2023-06-06T07:02:16.023Z,9.17
2023-06-06T07:04:47.157Z,13.30
2023-06-06T07:07:17.119Z,13.10
2023-06-06T07:09:45.700Z,9.00
2023-06-06T07:12:14.086Z,8.07
2023-06-06T07:14:42.423Z,7.70
2023-06-06T07:17:12.006Z,10.80
2023-06-06T07:19:40.656Z,9.37
2023-06-06T07:22:09.844Z,7.50
2023-06-06T07:24:38.064Z,8.63
2023-06-06T07:27:07.188Z,7.47
2023-06-06T07:29:35.444Z,7.73
2023-06-06T07:32:03.675Z,14.97
2023-06-06T07:34:33.278Z,9.90
2023-06-06T07:37:02.125Z,9.40
2023-06-06T07:39:30.415Z,8.30
2023-06-06T07:41:58.915Z,8.30
2023-06-06T07:44:27.134Z,6.73
2023-06-06T07:46:55.451Z,13.10
2023-06-06T07:49:23.691Z,8.30
2023-06-06T07:51:53.298Z,8.30
2023-06-06T07:54:21.484Z,8.10
2023-06-06T07:56:49.684Z,7.93
2023-06-06T07:59:18.573Z,8.20
2023-06-06T08:01:47.073Z,7.03
2023-06-06T08:04:15.619Z,9.30
2023-06-06T08:06:43.893Z,6.87
2023-06-06T08:09:14.635Z,9.33
2023-06-06T08:11:42.999Z,7.67
2023-06-06T08:14:11.210Z,7.93
2023-06-06T08:16:39.853Z,10.80
2023-06-06T08:19:08.121Z,7.27
2023-06-06T08:21:37.744Z,7.27
2023-06-06T08:24:06.180Z,8.13
2023-06-06T08:26:35.872Z,7.63
2023-06-06T08:29:04.125Z,8.10
2023-06-06T08:31:32.415Z,7.70
2023-06-06T08:34:00.679Z,7.10
2023-06-06T08:36:28.920Z,7.00
2023-06-06T08:38:57.130Z,7.47
2023-06-06T08:41:25.994Z,7.60
2023-06-06T08:43:55.861Z,7.53
2023-06-06T08:46:26.036Z,8.00
2023-06-06T08:48:55.050Z,7.53
2023-06-06T08:51:25.410Z,10.17
2023-06-06T08:53:54.136Z,7.50
2023-06-06T08:56:23.588Z,6.27
2023-06-06T08:58:53.644Z,7.50
2023-06-06T09:01:23.501Z,8.27
2023-06-06T09:03:54.547Z,7.77
2023-06-06T09:06:23.061Z,6.83
2023-06-06T09:08:51.643Z,9.10
2023-06-06T09:11:19.958Z,7.17
2023-06-06T09:13:48.390Z,6.80
2023-06-06T09:16:16.676Z,6.47
2023-06-06T09:18:46.480Z,8.20
2023-06-06T09:21:15.728Z,8.17
2023-06-06T09:23:44.075Z,7.63
2023-06-06T09:26:20.552Z,6.93
2023-06-06T09:28:48.889Z,6.60
2023-06-06T09:31:24.660Z,7.80
2023-06-06T09:33:54.858Z,9.43
2023-06-06T09:36:24.388Z,5.90
2023-06-06T09:38:52.940Z,7.40
2023-06-06T09:41:22.572Z,6.90
2023-06-06T09:43:51.056Z,6.90
2023-06-06T09:46:19.963Z,6.87
2023-06-06T09:49:01.099Z,7.70
2023-06-06T09:51:32.348Z,5.90
2023-06-06T09:54:03.113Z,7.40
2023-06-06T09:56:32.516Z,6.90
2023-06-06T09:59:02.090Z,6.93
2023-06-06T10:01:32.521Z,6.90
2023-06-06T10:04:04.685Z,7.70
2023-06-06T10:06:35.216Z,6.07
2023-06-06T10:09:05.697Z,7.30
2023-06-06T10:11:35.968Z,5.97
2023-06-06T10:14:04.726Z,7.20
2023-06-06T10:16:33.499Z,7.00
2023-06-06T10:19:03.404Z,6.60
2023-06-06T10:21:33.024Z,6.40
2023-06-06T10:24:01.444Z,6.50
2023-06-06T10:26:32.233Z,7.10
2023-06-06T10:29:05.104Z,5.93
2023-06-06T10:31:38.915Z,6.77
2023-06-06T10:34:10.456Z,6.70
2023-06-06T10:36:44.334Z,8.90
2023-06-06T10:39:22.263Z,6.00
2023-06-06T10:41:54.345Z,5.37
2023-06-06T10:44:24.076Z,9.63
2023-06-06T10:46:52.437Z,6.00
2023-06-06T10:49:22.294Z,5.17
2023-06-06T10:51:50.538Z,6.47
2023-06-06T10:54:19.644Z,6.53
2023-06-06T10:56:48.888Z,6.97
2023-06-06T10:59:17.531Z,7.40
2023-06-06T11:01:46.551Z,7.57
2023-06-06T11:04:23.373Z,6.90
2023-06-06T11:06:52.937Z,5.60
2023-06-06T11:09:23.377Z,7.70
2023-06-06T11:11:53.131Z,6.63
2023-06-06T11:14:25.248Z,6.27
2023-06-06T11:16:54.223Z,6.27
2023-06-06T11:19:32.710Z,6.73
2023-06-06T11:22:01.277Z,5.00
2023-06-06T11:24:34.071Z,5.00
2023-06-06T11:27:02.373Z,5.90
2023-06-06T11:29:32.364Z,8.80
2023-06-06T11:32:00.937Z,5.50
2023-06-06T11:34:34.012Z,7.40
2023-06-06T11:37:02.607Z,6.83
2023-06-06T11:39:31.224Z,4.67
2023-06-06T11:41:59.471Z,3.87
2023-06-06T11:44:35.132Z,3.70
2023-06-06T11:47:04.834Z,4.83
2023-06-06T11:49:45.184Z,4.90
2023-06-06T11:52:13.426Z,4.80
2023-06-06T11:54:42.298Z,4.90
2023-06-06T11:57:10.617Z,4.50
2023-06-06T11:59:38.884Z,4.63
2023-06-06T12:02:08.462Z,4.60
2023-06-06T12:04:36.696Z,4.40
2023-06-06T12:07:07.018Z,3.63
2023-06-06T12:09:35.304Z,4.47
2023-06-06T12:12:05.443Z,4.90
2023-06-06T12:14:34.394Z,5.00
2023-06-06T12:17:06.086Z,3.87
2023-06-06T12:19:34.457Z,4.33
2023-06-06T12:22:02.773Z,4.13
2023-06-06T12:24:32.918Z,4.60
2023-06-06T12:27:03.180Z,5.40
2023-06-06T12:29:34.837Z,3.70
2023-06-06T12:32:15.636Z,4.50
2023-06-06T12:34:46.161Z,4.47
2023-06-06T12:37:14.579Z,4.27
2023-06-06T12:39:44.784Z,4.20
2023-06-06T12:42:16.618Z,4.40
2023-06-06T12:44:45.185Z,4.30
2023-06-06T12:47:14.924Z,4.20
2023-06-06T12:49:43.405Z,4.20
2023-06-06T12:52:12.541Z,4.23
2023-06-06T12:54:42.399Z,3.90
2023-06-06T12:57:13.035Z,4.10
2023-06-06T12:59:43.367Z,5.70
2023-06-06T13:02:12.275Z,5.70
2023-06-06T13:04:41.239Z,5.13
2023-06-06T13:07:11.821Z,3.90
2023-06-06T13:09:40.391Z,4.43
2023-06-06T13:12:10.067Z,4.00
2023-06-06T13:14:39.976Z,5.10
2023-06-06T13:17:13.348Z,4.20
2023-06-06T13:19:42.799Z,3.23
2023-06-06T13:22:11.250Z,4.53
2023-06-06T13:24:39.502Z,4.60
2023-06-06T13:27:08.564Z,4.60
2023-06-06T13:29:37.282Z,4.33
2023-06-06T13:32:07.402Z,4.57
2023-06-06T13:34:35.806Z,3.20
2023-06-06T13:37:04.530Z,3.60
2023-06-06T13:39:32.863Z,4.47
2023-06-06T13:42:01.155Z,5.23
2023-06-06T13:44:29.359Z,5.10
2023-06-06T13:47:01.471Z,4.63
2023-06-06T13:49:31.394Z,4.77
2023-06-06T13:52:00.606Z,4.70
2023-06-06T13:54:29.102Z,5.73
2023-06-06T13:57:01.292Z,4.53
2023-06-06T13:59:29.670Z,4.60
2023-06-06T14:01:58.160Z,3.53
2023-06-06T14:04:29.342Z,4.30
2023-06-06T14:07:00.582Z,4.80
2023-06-06T14:09:32.015Z,3.83
2023-06-06T14:12:01.768Z,4.20
2023-06-06T14:14:30.013Z,4.43
2023-06-06T14:16:58.345Z,4.27
2023-06-06T14:19:36.203Z,4.53
2023-06-06T14:22:25.209Z,5.60
2023-06-06T14:24:55.415Z,4.50
2023-06-06T14:27:24.002Z,4.40
2023-06-06T14:29:54.312Z,3.60
2023-06-06T14:32:26.762Z,5.23
2023-06-06T14:34:55.096Z,3.80
2023-06-06T14:37:24.686Z,4.53
2023-06-06T14:39:53.010Z,3.70
2023-06-06T14:42:21.523Z,4.10
2023-06-06T14:44:49.937Z,4.17
2023-06-06T14:47:18.199Z,4.40
2023-06-06T14:49:47.390Z,4.83
2023-06-06T14:52:15.906Z,4.50
2023-06-06T14:54:46.303Z,3.90
2023-06-06T14:57:16.334Z,4.70
2023-06-06T14:59:45.066Z,4.40
2023-06-06T15:02:13.659Z,4.33
2023-06-06T15:04:42.091Z,5.03
2023-06-06T15:07:12.019Z,4.80
2023-06-06T15:09:43.014Z,3.53
2023-06-06T15:12:14.108Z,5.33
2023-06-06T15:14:45.814Z,4.43
2023-06-06T15:17:14.489Z,3.50
2023-06-06T15:19:44.624Z,4.53
2023-06-06T15:22:13.932Z,4.90
2023-06-06T15:24:42.469Z,4.77
2023-06-06T15:27:11.289Z,5.17
2023-06-06T15:29:44.959Z,4.83
2023-06-06T15:32:15.822Z,3.93
2023-06-06T15:34:47.056Z,4.20
2023-06-06T15:37:15.673Z,4.63
2023-06-06T15:39:45.211Z,4.80
2023-06-06T15:42:13.747Z,4.63
2023-06-06T15:44:44.581Z,4.20
2023-06-06T15:47:12.946Z,4.97
2023-06-06T15:49:41.288Z,4.40
2023-06-06T15:52:09.603Z,4.30
2023-06-06T15:54:38.120Z,4.90
2023-06-06T15:57:06.746Z,5.07
2023-06-06T15:59:37.775Z,4.60
2023-06-06T16:02:09.188Z,4.77
2023-06-06T16:04:40.238Z,4.97
2023-06-06T16:07:08.553Z,5.03
2023-06-06T16:09:36.940Z,4.40
2023-06-06T16:12:06.113Z,3.80
2023-06-06T16:14:34.426Z,5.13
2023-06-06T16:17:02.637Z,5.20
2023-06-06T16:19:32.318Z,4.30
2023-06-06T16:22:00.569Z,5.53
2023-06-06T16:24:28.834Z,4.37
2023-06-06T16:26:57.062Z,5.03
2023-06-06T16:29:25.284Z,4.40
2023-06-06T16:31:53.563Z,5.50
2023-06-06T16:34:21.876Z,5.20
2023-06-06T16:36:51.523Z,5.20
2023-06-06T16:39:19.994Z,5.83
2023-06-06T16:41:48.909Z,7.13
2023-06-06T16:44:17.200Z,4.97
2023-06-06T16:46:45.455Z,4.27
2023-06-06T16:49:13.701Z,4.60
2023-06-06T16:51:41.902Z,4.57
2023-06-06T16:54:14.391Z,5.93
2023-06-06T16:56:45.383Z,4.33
2023-06-06T16:59:13.972Z,5.10
2023-06-06T17:01:42.771Z,5.20
2023-06-06T17:04:11.130Z,5.50
2023-06-06T17:06:39.432Z,5.20
2023-06-06T17:09:09.063Z,4.77
2023-06-06T17:11:38.902Z,4.70
2023-06-06T17:14:07.970Z,4.83
2023-06-06T17:16:36.407Z,5.93
2023-06-06T17:19:04.709Z,6.10
2023-06-06T17:21:32.950Z,5.50
2023-06-06T17:24:01.228Z,4.93
2023-06-06T17:26:29.562Z,5.40
2023-06-06T17:28:59.193Z,5.60
2023-06-06T17:31:30.309Z,4.30
2023-06-06T17:33:58.842Z,5.57
2023-06-06T17:36:27.284Z,4.90
2023-06-06T17:38:56.411Z,4.97
2023-06-06T17:41:24.708Z,4.43
2023-06-06T17:43:53.053Z,5.50
2023-06-06T17:46:23.659Z,5.10
2023-06-06T17:48:54.187Z,5.30
2023-06-06T17:51:22.430Z,5.00
2023-06-06T17:53:50.639Z,5.00
2023-06-06T17:56:19.883Z,4.30
2023-06-06T17:58:48.123Z,4.70
2023-06-06T18:01:17.466Z,4.40
2023-06-06T18:03:47.230Z,4.50
2023-06-06T18:06:20.584Z,4.43
2023-06-06T18:08:49.352Z,4.90
2023-06-06T18:11:18.182Z,5.50
2023-06-06T18:13:47.923Z,5.17
2023-06-06T18:16:17.429Z,5.87
2023-06-06T18:18:48.350Z,4.33
2023-06-06T18:21:16.947Z,4.90
2023-06-06T18:23:45.224Z,5.27
2023-06-06T18:26:13.536Z,4.90
2023-06-06T18:28:41.781Z,4.90
2023-06-06T18:31:13.520Z,5.80
2023-06-06T18:33:51.015Z,4.47
2023-06-06T18:36:19.671Z,5.40
2023-06-06T18:38:47.906Z,4.20
2023-06-06T18:41:16.335Z,4.83
2023-06-06T18:43:44.615Z,5.10
2023-06-06T18:46:13.029Z,4.90
2023-06-06T18:48:41.853Z,5.40
2023-06-06T18:51:12.038Z,4.97
2023-06-06T18:53:40.366Z,4.80
2023-06-06T18:56:08.812Z,4.40
2023-06-06T18:58:37.684Z,4.73
2023-06-06T19:01:05.897Z,5.20
2023-06-06T19:03:34.811Z,4.57
2023-06-06T19:06:03.305Z,4.27
2023-06-06T19:08:33.880Z,5.80
2023-06-06T19:11:02.824Z,5.13
2023-06-06T19:13:31.175Z,6.10
2023-06-06T19:15:59.616Z,4.93
2023-06-06T19:18:32.017Z,5.13
2023-06-06T19:21:00.886Z,4.13
2023-06-06T19:23:29.670Z,4.47
2023-06-06T19:26:00.376Z,4.50
2023-06-06T19:28:28.642Z,5.70
2023-06-06T19:30:59.652Z,5.67
2023-06-06T19:33:27.876Z,4.70
2023-06-06T19:35:56.078Z,5.27
2023-06-06T19:38:24.601Z,5.00
2023-06-06T19:40:52.827Z,4.80
2023-06-06T19:43:22.544Z,4.30
2023-06-06T19:45:50.962Z,4.70
2023-06-06T19:48:20.061Z,5.00
2023-06-06T19:50:48.600Z,3.77
2023-06-06T19:53:18.047Z,4.70
2023-06-06T19:55:47.687Z,4.90
2023-06-06T19:58:16.902Z,4.90
2023-06-06T20:00:47.720Z,4.90
2023-06-06T20:03:16.226Z,5.10
2023-06-06T20:05:44.963Z,4.50
2023-06-06T20:08:13.402Z,5.00
2023-06-06T20:10:41.628Z,4.60
2023-06-06T20:13:10.511Z,4.73
2023-06-06T20:15:38.961Z,5.30
2023-06-06T20:18:09.238Z,5.07
2023-06-06T20:20:42.255Z,5.10
2023-06-06T20:23:10.668Z,4.77
2023-06-06T20:25:40.819Z,4.83
2023-06-06T20:28:09.146Z,5.17
2023-06-06T20:30:38.905Z,5.30
2023-06-06T20:33:08.495Z,5.43
2023-06-06T20:35:36.879Z,3.87
2023-06-06T20:38:05.236Z,5.27
2023-06-06T20:40:34.502Z,4.17
2023-06-06T20:43:02.747Z,5.10
2023-06-06T20:45:30.962Z,5.00
2023-06-06T20:47:59.285Z,4.57
2023-06-06T20:50:29.143Z,5.90
2023-06-06T20:52:57.380Z,5.60
2023-06-06T20:55:25.931Z,6.30
2023-06-06T20:57:54.360Z,6.20
2023-06-06T21:00:22.572Z,5.20
2023-06-06T21:02:51.024Z,6.73
2023-06-06T21:05:19.370Z,5.70
2023-06-06T21:07:51.586Z,5.43
2023-06-06T21:10:19.952Z,6.27
2023-06-06T21:12:48.210Z,5.20
2023-06-06T21:15:16.606Z,5.83
2023-06-06T21:17:44.873Z,6.00
2023-06-06T21:20:14.017Z,7.13
2023-06-06T21:22:42.402Z,6.50
2023-06-06T21:25:12.633Z,6.60
2023-06-06T21:27:40.880Z,6.83
2023-06-06T21:30:10.616Z,6.73
2023-06-06T21:32:39.174Z,6.50
2023-06-06T21:35:07.761Z,6.60
2023-06-06T21:37:35.946Z,6.00
2023-06-06T21:40:04.922Z,6.40
2023-06-06T21:42:34.776Z,6.57
2023-06-06T21:45:03.033Z,6.20
2023-06-06T21:47:31.299Z,6.27
2023-06-06T21:50:08.067Z,5.90
2023-06-06T21:52:36.485Z,6.53
2023-06-06T21:55:04.967Z,6.13
2023-06-06T21:57:34.790Z,5.50
2023-06-06T22:00:03.500Z,6.10
2023-06-06T22:02:32.226Z,7.03
2023-06-06T22:05:00.508Z,5.93
2023-06-06T22:07:28.708Z,6.80
2023-06-06T22:09:57.488Z,7.17
2023-06-06T22:12:25.999Z,5.73
2023-06-06T22:14:55.571Z,6.30
2023-06-06T22:17:25.696Z,5.43
2023-06-06T22:19:53.975Z,6.03
2023-06-06T22:22:22.241Z,5.27
2023-06-06T22:24:50.525Z,5.20
2023-06-06T22:27:18.947Z,6.13
2023-06-06T22:29:47.751Z,5.17
2023-06-06T22:32:18.145Z,5.40
2023-06-06T22:34:46.580Z,5.30
2023-06-06T22:37:15.170Z,5.63
2023-06-06T22:39:43.400Z,5.60
2023-06-06T22:42:11.717Z,5.03
2023-06-06T22:44:39.919Z,5.10
2023-06-06T22:47:08.281Z,6.00
2023-06-06T22:49:37.947Z,5.33
2023-06-06T22:52:06.503Z,4.90
2023-06-06T22:54:34.713Z,6.57
2023-06-06T22:57:02.923Z,5.20
2023-06-06T22:59:31.591Z,5.80
2023-06-06T23:01:59.812Z,6.20
2023-06-06T23:04:28.775Z,5.87
2023-06-06T23:06:58.402Z,5.70
2023-06-06T23:09:26.638Z,6.00
2023-06-06T23:11:54.857Z,5.97
2023-06-06T23:14:23.107Z,6.43
2023-06-06T23:16:53.589Z,5.70
2023-06-06T23:19:21.829Z,7.07
2023-06-06T23:21:50.056Z,6.40
2023-06-06T23:24:19.621Z,4.40
2023-06-06T23:26:47.833Z,5.93
2023-06-06T23:29:16.460Z,5.80
2023-06-06T23:31:44.891Z,6.60
2023-06-06T23:34:13.276Z,6.27
2023-06-06T23:36:41.531Z,5.10
2023-06-06T23:39:09.984Z,6.70
2023-06-06T23:41:39.546Z,5.67
2023-06-06T23:44:07.934Z,6.90
2023-06-06T23:46:36.160Z,7.30
2023-06-06T23:49:04.406Z,7.13
2023-06-06T23:51:32.656Z,7.83
2023-06-06T23:54:00.863Z,6.80
2023-06-06T23:56:29.061Z,6.40
2023-06-06T23:58:58.637Z,6.80
